Time;durP1;ratioP1;P1;durP2;ratioP2;P2;SDS_P1;SDS_P2;PMS_P1;PMS_P2;Temp;Humidity;BMP_temperature;BMP_pressure;BME280_temperature;BME280_humidity;BME280_pressure;Samples;Min_cycle;Max_cycle;Signal;HPM_P1;HPM_P2
2022/08/22 00:01:01;;;;;;;;;;;;;;;25.34;54.79;98642.81;5035154;28;19909;-75
2022/08/22 00:03:38;;;;;;;;;;;;;;;25.33;55.96;98645.81;5032526;28;19932;-75
2022/08/22 00:06:19;;;;;;;;;;;;;;;25.37;55.42;98646.00;5035111;28;19996;-75
2022/08/22 00:09:10;;;;;;;;;;;;;;;25.34;55.41;98656.31;5035224;28;19913;-75
2022/08/22 00:11:38;;;;;;;;;;;;;;;25.33;55.38;98651.22;5035004;28;19915;-75
2022/08/22 00:14:16;;;;;;;;;;;;;;;25.26;55.21;98653.47;5034719;28;20377;-75
2022/08/22 00:16:47;;;;;;;;;;;;;;;25.25;56.53;98654.56;5033342;28;19913;-75
2022/08/22 00:19:28;;;;;;;;;;;;;;;25.21;56.42;98651.66;5034854;28;20003;-75
2022/08/22 00:22:19;;;;;;;;;;;;;;;25.25;56.12;98649.16;5034806;28;20350;-75
2022/08/22 00:25:03;;;;;;;;;;;;;;;25.26;56.42;98661.56;5033415;28;20353;-75
2022/08/22 00:27:35;;;;;;;;;;;;;;;25.22;56.61;98668.66;5034668;28;19920;-75
2022/08/22 00:30:07;;;;;;;;;;;;;;;25.20;56.92;98651.94;5033311;28;20014;-75
2022/08/22 00:32:42;;;;;;;;;;;;;;;25.10;57.45;98652.91;5034616;28;19916;-75
2022/08/22 00:35:07;;;;;;;;;;;;;;;25.04;57.86;98654.09;5035000;28;20312;-75
2022/08/22 00:37:38;;;;;;;;;;;;;;;25.03;58.02;98664.09;5034829;28;19991;-75
2022/08/22 00:40:18;;;;;;;;;;;;;;;25.02;56.94;98661.69;5033606;28;19909;-75
2022/08/22 00:42:54;;;;;;;;;;;;;;;25.00;57.18;98670.06;5034549;28;19931;-75
2022/08/22 00:45:38;;;;;;;;;;;;;;;24.97;56.73;98670.66;5034469;28;19920;-75
2022/08/22 00:48:06;;;;;;;;;;;;;;;24.94;58.14;98660.41;5034474;28;19913;-75
2022/08/22 00:50:40;;;;;;;;;;;;;;;24.99;57.63;98668.47;5033061;28;20369;-75
2022/08/22 00:53:11;;;;;;;;;;;;;;;24.95;57.14;98663.91;5034281;28;19909;-75
2022/08/22 00:55:44;;;;;;;;;;;;;;;24.94;58.46;98659.63;5032939;28;20441;-75
2022/08/22 00:58:12;;;;;;;;;;;;;;;24.89;57.25;98655.09;5034063;28;20004;-75
2022/08/22 01:00:47;;;;;;;;;;;;;;;24.89;57.28;98657.00;5034074;28;19995;-75
2022/08/22 01:03:31;;;;;;;;;;;;;;;24.86;57.13;98649.47;5033917;28;19909;-75
2022/08/22 01:05:59;;;;;;;;;;;;;;;24.85;58.29;98647.88;5033942;28;19909;-76
2022/08/22 01:08:27;;;;;;;;;;;;;;;24.88;57.63;98644.59;5034216;28;19971;-75
2022/08/22 01:10:58;;;;;;;;;;;;;;;24.89;57.05;98646.19;5033882;28;19948;-75
2022/08/22 01:13:35;;;;;;;;;;;;;;;24.90;57.26;98653.19;5033886;28;20309;-75
2022/08/22 01:16:12;;;;;;;;;;;;;;;24.81;56.74;98644.16;5033679;28;20420;-75
2022/08/22 01:18:55;;;;;;;;;;;;;;;24.79;56.88;98649.84;5033327;28;20055;-75
2022/08/22 01:21:23;;;;;;;;;;;;;;;24.78;57.34;98658.25;5033541;28;19949;-75
2022/08/22 01:23:49;;;;;;;;;;;;;;;24.82;57.25;98659.25;5033739;28;19916;-75
2022/08/22 01:26:17;;;;;;;;;;;;;;;24.84;57.29;98649.78;5033607;28;20298;-75
2022/08/22 01:29:01;;;;;;;;;;;;;;;24.87;57.67;98654.59;5033438;28;20302;-75
2022/08/22 01:31:32;;;;;;;;;;;;;;;24.88;58.69;98656.19;5033534;28;19916;-75
2022/08/22 01:34:16;;;;;;;;;;;;;;;24.85;56.71;98661.38;5032173;28;20337;-75
2022/08/22 01:37:10;;;;;;;;;;;;;;;24.81;56.70;98666.56;5033402;28;20413;-75
2022/08/22 01:39:48;;;;;;;;;;;;;;;24.81;57.97;98652.25;5023440;28;19909;-76
2022/08/22 01:42:19;;;;;;;;;;;;;;;24.78;57.48;98659.03;5032047;28;19945;-75
2022/08/22 01:44:44;;;;;;;;;;;;;;;24.76;58.81;98655.03;5032018;28;20011;-75
2022/08/22 01:47:13;;;;;;;;;;;;;;;24.74;59.25;98660.72;5033019;28;19956;-75
2022/08/22 01:49:59;;;;;;;;;;;;;;;24.62;61.15;98647.66;5031664;28;19909;-75
2022/08/22 01:52:30;;;;;;;;;;;;;;;24.59;59.47;98642.03;5032606;28;19912;-75
2022/08/22 01:55:01;;;;;;;;;;;;;;;24.57;58.06;98641.53;5031687;28;20345;-75
2022/08/22 01:57:27;;;;;;;;;;;;;;;24.54;58.84;98640.22;5031742;28;19909;-75
2022/08/22 02:00:03;;;;;;;;;;;;;;;24.54;58.34;98639.41;5033010;28;19916;-75
2022/08/22 02:02:40;;;;;;;;;;;;;;;24.56;58.73;98651.53;5032910;28;20332;-75
2022/08/22 02:05:06;;;;;;;;;;;;;;;24.59;59.24;98647.44;5033064;28;19916;-75
2022/08/22 02:07:34;;;;;;;;;;;;;;;24.57;59.10;98642.34;5032516;28;19917;-75
2022/08/22 02:10:02;;;;;;;;;;;;;;;24.58;60.34;98646.63;5032736;28;20407;-75
2022/08/22 02:12:36;;;;;;;;;;;;;;;24.57;58.47;98650.44;5032665;28;20047;-75
2022/08/22 02:15:14;;;;;;;;;;;;;;;24.57;59.02;98645.03;5031351;28;19952;-75
2022/08/22 02:17:54;;;;;;;;;;;;;;;24.59;58.21;98631.25;5031217;28;19921;-75
2022/08/22 02:20:23;;;;;;;;;;;;;;;24.59;57.99;98632.06;5032484;28;20394;-75
2022/08/22 02:22:48;;;;;;;;;;;;;;;24.58;58.99;98630.44;5032298;28;19909;-75
2022/08/22 02:25:20;;;;;;;;;;;;;;;24.58;59.57;98635.84;5032289;28;19909;-76
2022/08/22 02:27:45;;;;;;;;;;;;;;;24.60;59.27;98630.97;5032309;28;19967;-75
2022/08/22 02:30:13;;;;;;;;;;;;;;;24.60;58.88;98644.44;5032399;28;19909;-75
2022/08/22 02:32:38;;;;;;;;;;;;;;;24.64;58.79;98645.47;5032529;28;19931;-75
2022/08/22 02:35:04;;;;;;;;;;;;;;;24.65;57.96;98651.66;5032342;28;20374;-75
2022/08/22 02:37:29;;;;;;;;;;;;;;;24.63;58.78;98659.25;5032349;28;19909;-75
2022/08/22 02:40:04;;;;;;;;;;;;;;;24.61;58.47;98658.75;5032496;28;19956;-75
2022/08/22 02:42:36;;;;;;;;;;;;;;;24.61;57.77;98661.44;5032407;28;19974;-75
2022/08/22 02:45:04;;;;;;;;;;;;;;;24.60;57.80;98676.84;5032086;28;19909;-75
2022/08/22 02:47:48;;;;;;;;;;;;;;;24.55;58.43;98673.41;5032051;28;19919;-75
2022/08/22 02:50:43;;;;;;;;;;;;;;;24.49;59.93;98667.25;5032328;28;19909;-75
2022/08/22 02:53:40;;;;;;;;;;;;;;;24.46;57.83;98675.13;5027492;28;19909;-75
2022/08/22 02:56:11;;;;;;;;;;;;;;;24.44;59.26;98667.31;5020333;28;19909;-75
2022/08/22 02:58:36;;;;;;;;;;;;;;;24.53;59.77;98659.41;5030642;28;19909;-75
2022/08/22 03:01:02;;;;;;;;;;;;;;;24.60;59.34;98668.75;5030646;28;20393;-75
2022/08/22 03:03:30;;;;;;;;;;;;;;;24.64;59.02;98671.66;5031313;28;19990;-75
2022/08/22 03:06:00;;;;;;;;;;;;;;;24.69;58.46;98667.00;5031971;28;20000;-75
2022/08/22 03:08:37;;;;;;;;;;;;;;;24.73;58.95;98674.50;5031789;28;19917;-75
2022/08/22 03:11:02;;;;;;;;;;;;;;;24.71;59.14;98683.69;5031818;28;19948;-75
2022/08/22 03:13:46;;;;;;;;;;;;;;;24.69;59.51;98679.69;5030546;28;19999;-75
2022/08/22 03:16:20;;;;;;;;;;;;;;;24.66;59.68;98685.66;5031893;28;19909;-75
2022/08/22 03:19:00;;;;;;;;;;;;;;;24.66;59.32;98691.06;5031581;28;19917;-75
2022/08/22 03:21:33;;;;;;;;;;;;;;;24.62;59.25;98692.75;5031814;28;19913;-75
2022/08/22 03:24:13;;;;;;;;;;;;;;;24.62;58.50;98700.84;5031484;28;19909;-75
2022/08/22 03:26:44;;;;;;;;;;;;;;;24.55;60.11;98695.81;5031522;28;19909;-75
2022/08/22 03:29:29;;;;;;;;;;;;;;;24.53;61.10;98692.59;5031297;28;20018;-75
2022/08/22 03:32:10;;;;;;;;;;;;;;;24.53;59.85;98691.78;5031547;28;20298;-75
2022/08/22 03:34:35;;;;;;;;;;;;;;;24.58;59.14;98697.91;5031572;28;19909;-75
2022/08/22 03:37:16;;;;;;;;;;;;;;;24.55;58.65;98693.09;5030379;28;20364;-75
2022/08/22 03:39:41;;;;;;;;;;;;;;;24.52;59.29;98695.53;5031710;28;19916;-75
2022/08/22 03:42:25;;;;;;;;;;;;;;;24.50;58.99;98703.94;5030366;28;20306;-75
2022/08/22 03:44:53;;;;;;;;;;;;;;;24.48;59.69;98708.81;5031618;28;19916;-76
2022/08/22 03:47:19;;;;;;;;;;;;;;;24.43;59.96;98708.88;5031527;28;19913;-75
2022/08/22 03:49:44;;;;;;;;;;;;;;;24.48;59.75;98708.81;5030408;28;19909;-75
2022/08/22 03:52:28;;;;;;;;;;;;;;;24.52;58.72;98709.84;5031745;28;19916;-75
2022/08/22 03:54:53;;;;;;;;;;;;;;;24.53;59.12;98710.69;5046623;28;19909;-75
2022/08/22 03:57:37;;;;;;;;;;;;;;;24.59;58.66;98718.41;5031365;28;19912;-75
2022/08/22 04:00:32;;;;;;;;;;;;;;;24.55;58.74;98722.78;5031330;28;19912;-75
2022/08/22 04:03:04;;;;;;;;;;;;;;;24.57;57.87;98723.31;5030050;28;19909;-75
2022/08/22 04:05:45;;;;;;;;;;;;;;;24.57;58.87;98736.78;5031305;28;19909;-75
2022/08/22 04:08:28;;;;;;;;;;;;;;;24.58;58.57;98727.59;5031158;28;20408;-75
2022/08/22 04:10:55;;;;;;;;;;;;;;;24.62;57.96;98744.84;5031314;28;19962;-75
2022/08/22 04:13:20;;;;;;;;;;;;;;;24.59;58.87;98739.22;5031191;28;19916;-75
2022/08/22 04:15:51;;;;;;;;;;;;;;;24.49;58.74;98740.09;5032327;28;19909;-75
2022/08/22 04:18:23;;;;;;;;;;;;;;;24.47;59.62;98738.78;5033391;28;19917;-75
2022/08/22 04:21:06;;;;;;;;;;;;;;;24.46;59.01;98740.69;5034699;28;19909;-75
2022/08/22 04:23:50;;;;;;;;;;;;;;;24.48;59.38;98738.50;5050046;28;20008;-75
2022/08/22 04:26:20;;;;;;;;;;;;;;;24.55;59.86;98733.59;5050023;28;19963;-75
2022/08/22 04:28:48;;;;;;;;;;;;;;;24.60;59.27;98728.13;5034653;28;19913;-75
2022/08/22 04:31:16;;;;;;;;;;;;;;;24.67;58.40;98733.97;5035197;28;19909;-75
2022/08/22 04:33:56;;;;;;;;;;;;;;;24.71;59.12;98729.59;5034512;28;19928;-75
2022/08/22 04:36:38;;;;;;;;;;;;;;;24.75;59.62;98731.72;5034460;28;19928;-75
2022/08/22 04:39:08;;;;;;;;;;;;;;;24.79;59.80;98730.03;5034318;28;19959;-75
2022/08/22 04:42:02;;;;;;;;;;;;;;;24.83;59.01;98733.75;5034380;28;19966;-76
2022/08/22 04:44:30;;;;;;;;;;;;;;;24.86;59.25;98728.59;5029597;28;19909;-75
2022/08/22 04:47:05;;;;;;;;;;;;;;;24.96;58.01;98733.03;5034199;28;19999;-75
2022/08/22 04:49:39;;;;;;;;;;;;;;;25.04;58.73;98724.31;5034111;28;19913;-75
2022/08/22 04:52:10;;;;;;;;;;;;;;;25.07;58.19;98728.31;5034160;28;19964;-76
2022/08/22 04:54:51;;;;;;;;;;;;;;;25.11;58.43;98727.44;5034160;28;19909;-75
2022/08/22 04:57:31;;;;;;;;;;;;;;;25.21;58.45;98734.59;5034180;28;19952;-75
2022/08/22 04:59:58;;;;;;;;;;;;;;;25.27;59.21;98734.25;5034018;28;19909;-75
2022/08/22 05:02:26;;;;;;;;;;;;;;;25.30;58.76;98730.97;5032649;28;19913;-75
2022/08/22 05:04:58;;;;;;;;;;;;;;;25.36;58.52;98725.47;5033969;28;19960;-75
2022/08/22 05:07:26;;;;;;;;;;;;;;;25.38;58.24;98736.78;5033718;28;19909;-75
2022/08/22 05:10:04;;;;;;;;;;;;;;;25.37;59.35;98735.19;5034097;28;19913;-75
2022/08/22 05:12:31;;;;;;;;;;;;;;;25.45;58.87;98734.53;5032604;28;19909;-75
2022/08/22 05:15:00;;;;;;;;;;;;;;;25.52;58.26;98729.53;5033884;28;20302;-75
2022/08/22 05:17:27;;;;;;;;;;;;;;;25.58;59.02;98731.84;5033549;28;20394;-75
2022/08/22 05:19:54;;;;;;;;;;;;;;;25.60;58.66;98739.69;5033442;28;19952;-75
2022/08/22 05:22:23;;;;;;;;;;;;;;;25.66;58.43;98738.53;5033528;28;19908;-75
2022/08/22 05:24:52;;;;;;;;;;;;;;;25.63;59.22;98736.38;5033378;28;19907;-75
2022/08/22 05:27:23;;;;;;;;;;;;;;;25.71;58.40;98740.34;5033139;28;19909;-75
2022/08/22 05:29:51;;;;;;;;;;;;;;;25.75;58.94;98750.25;5033368;28;19916;-75
2022/08/22 05:32:25;;;;;;;;;;;;;;;25.81;58.19;98748.28;5033496;28;19909;-75
2022/08/22 05:34:53;;;;;;;;;;;;;;;25.86;57.64;98745.47;5033498;28;19908;-75
2022/08/22 05:37:38;;;;;;;;;;;;;;;25.84;58.41;98744.97;5033318;28;19916;-75
2022/08/22 05:40:04;;;;;;;;;;;;;;;25.90;59.00;98751.91;5032595;28;19912;-75
2022/08/22 05:42:32;;;;;;;;;;;;;;;25.97;58.26;98749.59;5032900;28;19966;-75
2022/08/22 05:45:00;;;;;;;;;;;;;;;26.05;58.22;98756.25;5035342;28;19913;-75
2022/08/22 05:47:52;;;;;;;;;;;;;;;26.09;58.45;98763.47;5037794;28;20408;-75
2022/08/22 05:50:20;;;;;;;;;;;;;;;26.11;57.33;98755.88;4992172;28;19909;-75
2022/08/22 05:53:07;;;;;;;;;;;;;;;26.10;56.21;98759.69;5026624;28;19970;-75
2022/08/22 05:55:32;;;;;;;;;;;;;;;26.11;58.29;98757.78;5033302;28;20385;-75
2022/08/22 05:57:59;;;;;;;;;;;;;;;26.15;57.89;98761.47;5035812;28;19916;-75
2022/08/22 06:00:27;;;;;;;;;;;;;;;26.15;57.67;98767.69;5036453;28;19924;-75
2022/08/22 06:02:52;;;;;;;;;;;;;;;26.20;57.27;98766.81;5039660;28;19912;-75
2022/08/22 06:05:22;;;;;;;;;;;;;;;26.24;57.10;98767.81;5032624;28;19917;-75
2022/08/22 06:07:49;;;;;;;;;;;;;;;26.27;56.56;98772.63;5032493;28;19971;-75
2022/08/22 06:10:20;;;;;;;;;;;;;;;26.27;56.59;98778.84;5035941;28;20007;-75
2022/08/22 06:13:12;;;;;;;;;;;;;;;26.32;56.56;98775.22;5032093;28;19995;-75
2022/08/22 06:15:43;;;;;;;;;;;;;;;26.42;56.13;98780.47;5039149;28;19919;-75
2022/08/22 06:18:13;;;;;;;;;;;;;;;26.48;55.31;98775.75;5037486;28;19917;-75
2022/08/22 06:20:44;;;;;;;;;;;;;;;26.49;55.33;98786.28;5033112;28;19979;-76
2022/08/22 06:23:13;;;;;;;;;;;;;;;26.54;55.03;98783.47;5023342;28;19909;-75
2022/08/22 06:25:42;;;;;;;;;;;;;;;26.54;55.46;98780.78;5021647;28;19912;-76
2022/08/22 06:28:10;;;;;;;;;;;;;;;26.56;55.46;98783.97;5027948;28;20016;-76
2022/08/22 06:30:38;;;;;;;;;;;;;;;26.60;55.57;98781.47;5029175;28;19917;-75
2022/08/22 06:33:08;;;;;;;;;;;;;;;26.67;55.03;98784.59;5030199;28;19917;-76
2022/08/22 06:38:32;;;;;;;;;;;;;;;26.70;55.09;98783.97;5030161;28;19920;-75
2022/08/22 06:40:59;;;;;;;;;;;;;;;26.68;54.79;98783.47;5012254;28;19909;-75
2022/08/22 06:43:25;;;;;;;;;;;;;;;26.65;54.86;98780.56;5030785;28;19917;-75
2022/08/22 06:45:51;;;;;;;;;;;;;;;26.75;54.37;98780.34;5033788;28;20360;-75
2022/08/22 06:48:22;;;;;;;;;;;;;;;26.80;54.48;98783.00;5031644;28;19913;-76
2022/08/22 06:50:51;;;;;;;;;;;;;;;26.85;54.17;98791.00;5031671;28;20393;-76
2022/08/22 06:53:25;;;;;;;;;;;;;;;26.92;54.07;98785.97;5032771;28;19915;-75
2022/08/22 06:55:53;;;;;;;;;;;;;;;27.05;53.71;98787.09;5030163;28;19921;-75
2022/08/22 06:58:22;;;;;;;;;;;;;;;27.13;53.28;98789.09;5027473;28;22226;-75
2022/08/22 07:00:52;;;;;;;;;;;;;;;27.13;53.22;98795.31;5063694;28;19909;-76
2022/08/22 07:03:19;;;;;;;;;;;;;;;27.18;53.32;98799.81;5031333;28;19952;-75
2022/08/22 07:05:45;;;;;;;;;;;;;;;27.13;54.21;98792.59;5030425;28;19916;-76
2022/08/22 07:08:14;;;;;;;;;;;;;;;27.16;54.27;98797.41;5033912;28;19964;-76
2022/08/22 07:10:44;;;;;;;;;;;;;;;27.24;54.47;98787.75;5051582;28;19909;-75
2022/08/22 07:13:18;;;;;;;;;;;;;;;27.26;53.35;98790.94;5049072;28;20372;-76
2022/08/22 07:15:49;;;;;;;;;;;;;;;27.21;53.23;98791.88;5032145;28;19948;-76
2022/08/22 07:18:18;;;;;;;;;;;;;;;27.12;54.58;98791.00;5033466;28;20424;-76
2022/08/22 07:20:47;;;;;;;;;;;;;;;27.03;54.48;98800.94;5032203;28;19913;-76
2022/08/22 07:23:24;;;;;;;;;;;;;;;27.04;54.48;98796.31;5032780;28;19928;-75
2022/08/22 07:25:53;;;;;;;;;;;;;;;27.08;54.20;98800.03;5031765;28;19920;-75
2022/08/22 07:28:39;;;;;;;;;;;;;;;27.09;54.79;98797.03;5051251;28;19962;-75
2022/08/22 07:31:14;;;;;;;;;;;;;;;27.08;54.74;98798.13;5031634;28;19919;-75
2022/08/22 07:33:47;;;;;;;;;;;;;;;27.09;54.03;98794.31;5039151;28;19909;-75
2022/08/22 07:36:34;;;;;;;;;;;;;;;27.09;54.05;98798.94;5030923;28;19924;-75
2022/08/22 07:39:19;;;;;;;;;;;;;;;27.11;54.05;98794.81;5029480;28;20397;-75
2022/08/22 07:41:59;;;;;;;;;;;;;;;27.24;53.99;98812.13;5030681;28;19909;-75
2022/08/22 07:44:30;;;;;;;;;;;;;;;27.31;53.76;98804.38;5030791;28;19955;-75
2022/08/22 07:46:57;;;;;;;;;;;;;;;27.34;53.59;98811.91;5030831;28;20317;-75
2022/08/22 07:49:25;;;;;;;;;;;;;;;27.51;53.42;98811.28;5030891;28;19913;-75
2022/08/22 07:51:56;;;;;;;;;;;;;;;27.66;52.47;98802.00;5035258;28;19909;-75
2022/08/22 07:54:25;;;;;;;;;;;;;;;27.72;52.66;98804.28;5035328;28;19913;-75
2022/08/22 07:56:53;;;;;;;;;;;;;;;27.89;52.26;98805.50;5035472;28;20352;-75
2022/08/22 07:59:20;;;;;;;;;;;;;;;28.05;52.54;98809.44;5036432;28;19948;-75
2022/08/22 08:01:47;;;;;;;;;;;;;;;28.23;51.38;98797.59;5033659;28;19971;-75
2022/08/22 08:04:16;;;;;;;;;;;;;;;28.32;51.65;98803.91;5033739;28;19956;-75
2022/08/22 08:06:41;;;;;;;;;;;;;;;28.48;51.21;98802.38;5013898;28;19968;-75
2022/08/22 08:09:08;;;;;;;;;;;;;;;28.56;50.59;98798.06;5030763;28;19916;-75
2022/08/22 08:11:38;;;;;;;;;;;;;;;28.53;50.59;98795.19;5046794;28;19913;-75
2022/08/22 08:14:05;;;;;;;;;;;;;;;28.62;50.41;98793.31;5050564;28;20012;-75
2022/08/22 08:16:33;;;;;;;;;;;;;;;28.65;50.35;98798.09;5044791;28;19920;-75
2022/08/22 08:19:00;;;;;;;;;;;;;;;28.65;50.26;98801.63;5037201;28;19917;-75
2022/08/22 08:21:32;;;;;;;;;;;;;;;28.64;50.47;98793.78;5031508;28;19921;-75
2022/08/22 08:23:59;;;;;;;;;;;;;;;28.69;50.28;98785.50;5013364;28;19963;-76
2022/08/22 08:26:37;;;;;;;;;;;;;;;28.73;50.48;98786.47;5032869;28;19909;-75
2022/08/22 08:29:03;;;;;;;;;;;;;;;28.75;50.30;98790.47;5032997;28;19921;-75
2022/08/22 08:31:36;;;;;;;;;;;;;;;28.89;49.33;98784.13;5034123;28;19908;-75
2022/08/22 08:34:05;;;;;;;;;;;;;;;28.95;48.89;98774.72;5035164;28;20421;-75
2022/08/22 08:36:49;;;;;;;;;;;;;;;28.96;48.56;98773.59;5032838;28;19913;-75
2022/08/22 08:39:14;;;;;;;;;;;;;;;29.08;48.15;98777.31;5034070;28;19962;-75
2022/08/22 08:41:45;;;;;;;;;;;;;;;29.15;48.74;98770.59;5045970;28;19995;-75
2022/08/22 08:44:20;;;;;;;;;;;;;;;29.25;48.39;98784.69;5035210;28;19919;-75
2022/08/22 08:46:56;;;;;;;;;;;;;;;29.42;48.25;98779.25;5041677;28;19908;-76
2022/08/22 08:49:40;;;;;;;;;;;;;;;29.41;47.89;98779.56;5052700;28;20407;-76
2022/08/22 08:52:28;;;;;;;;;;;;;;;29.16;48.07;98777.63;5054089;28;19961;-75
2022/08/22 08:55:01;;;;;;;;;;;;;;;29.05;48.31;98777.16;5035450;28;20313;-75
2022/08/22 08:57:32;;;;;;;;;;;;;;;29.16;48.70;98774.91;5030826;28;19920;-75
2022/08/22 09:00:11;;;;;;;;;;;;;;;29.44;48.15;98770.78;5033747;28;20370;-75
2022/08/22 09:02:46;;;;;;;;;;;;;;;29.64;47.41;98772.84;5033026;28;19909;-75
2022/08/22 09:05:30;;;;;;;;;;;;;;;29.81;46.60;98771.25;5033142;28;19955;-75
2022/08/22 09:07:58;;;;;;;;;;;;;;;29.98;45.40;98771.19;5033457;28;19913;-75
2022/08/22 09:10:42;;;;;;;;;;;;;;;30.18;43.68;98767.00;5035198;28;19908;-75
2022/08/22 09:13:17;;;;;;;;;;;;;;;30.34;43.47;98774.31;5013846;28;19992;-76
2022/08/22 09:16:01;;;;;;;;;;;;;;;30.55;43.85;98774.41;5062734;28;19913;-75
2022/08/22 09:18:46;;;;;;;;;;;;;;;30.74;43.75;98765.03;5048495;28;19917;-75
2022/08/22 09:21:11;;;;;;;;;;;;;;;30.82;43.02;98770.44;5031455;28;19912;-75
2022/08/22 09:23:36;;;;;;;;;;;;;;;30.71;42.14;98763.75;5031947;28;19913;-75
2022/08/22 09:26:34;;;;;;;;;;;;;;;30.70;43.12;98758.63;5032906;28;19913;-75
2022/08/22 09:29:14;;;;;;;;;;;;;;;30.97;43.42;98752.69;5011189;28;19923;-75
2022/08/22 09:31:46;;;;;;;;;;;;;;;31.07;43.38;98748.75;5032731;28;19916;-75
2022/08/22 09:34:14;;;;;;;;;;;;;;;31.17;42.66;98745.66;5033999;28;19971;-76
2022/08/22 09:36:58;;;;;;;;;;;;;;;31.32;42.55;98752.47;5032896;28;19909;-76
2022/08/22 09:39:29;;;;;;;;;;;;;;;31.52;41.75;98744.25;5032245;28;19919;-75
2022/08/22 09:41:58;;;;;;;;;;;;;;;31.75;41.90;98744.69;5062787;28;19912;-76
2022/08/22 09:44:32;;;;;;;;;;;;;;;31.94;40.19;98738.72;5033901;28;19917;-75
2022/08/22 09:47:01;;;;;;;;;;;;;;;32.30;41.12;98738.00;5022010;28;19948;-75
2022/08/22 09:49:34;;;;;;;;;;;;;;;32.58;39.94;98737.31;5040900;28;19916;-75
2022/08/22 09:52:06;;;;;;;;;;;;;;;32.59;39.37;98734.25;5014992;28;19917;-76
2022/08/22 09:54:36;;;;;;;;;;;;;;;32.42;39.66;98735.28;5033917;28;19909;-75
2022/08/22 09:57:17;;;;;;;;;;;;;;;32.21;40.95;98743.56;5062305;28;19912;-76
2022/08/22 09:59:49;;;;;;;;;;;;;;;32.32;39.08;98733.00;5035035;28;19936;-75
2022/08/22 10:02:35;;;;;;;;;;;;;;;32.53;40.04;98730.94;5052375;28;19916;-76
2022/08/22 10:05:03;;;;;;;;;;;;;;;32.51;40.27;98726.97;5050859;28;20304;-76
2022/08/22 10:07:44;;;;;;;;;;;;;;;32.64;38.07;98709.41;5042973;28;19943;-76
2022/08/22 10:10:09;;;;;;;;;;;;;;;32.92;38.12;98722.38;5030213;28;19920;-75
2022/08/22 10:12:50;;;;;;;;;;;;;;;33.02;37.21;98724.66;5031811;28;19913;-76
2022/08/22 10:15:29;;;;;;;;;;;;;;;32.95;36.84;98725.22;5032062;28;19915;-76
2022/08/22 10:18:13;;;;;;;;;;;;;;;32.71;37.56;98708.84;5056103;28;20012;-76
2022/08/22 10:20:54;;;;;;;;;;;;;;;32.70;38.55;98712.69;5031831;28;19979;-75
2022/08/22 10:23:28;;;;;;;;;;;;;;;32.93;36.87;98715.78;5026897;28;20306;-76
2022/08/22 10:25:58;;;;;;;;;;;;;;;33.13;36.77;98715.59;5029814;28;19909;-76
2022/08/22 10:28:53;;;;;;;;;;;;;;;33.03;37.73;98709.81;5063832;28;20189;-75
2022/08/22 10:31:25;;;;;;;;;;;;;;;32.88;38.21;98710.56;4999954;28;19966;-75
2022/08/22 10:34:00;;;;;;;;;;;;;;;33.23;37.14;98710.78;5012354;28;19916;-75
2022/08/22 10:36:31;;;;;;;;;;;;;;;33.22;37.25;98700.97;5027012;28;19917;-76
2022/08/22 10:38:58;;;;;;;;;;;;;;;33.01;37.10;98695.69;5031184;28;19909;-76
2022/08/22 10:41:30;;;;;;;;;;;;;;;33.24;36.75;98693.22;5030203;28;20008;-75
2022/08/22 10:43:58;;;;;;;;;;;;;;;33.61;34.46;98686.47;5012542;28;19913;-76
2022/08/22 10:46:39;;;;;;;;;;;;;;;33.81;34.83;98681.88;5033711;28;19920;-76
2022/08/22 10:49:24;;;;;;;;;;;;;;;34.14;35.63;98675.28;5029019;28;20334;-76
2022/08/22 10:52:16;;;;;;;;;;;;;;;34.48;34.98;98680.06;5031390;28;19908;-76
2022/08/22 10:54:56;;;;;;;;;;;;;;;34.71;32.63;98672.72;5027539;28;19913;-76
2022/08/22 10:57:22;;;;;;;;;;;;;;;34.83;35.09;98679.25;5012830;28;20410;-76
2022/08/22 10:59:59;;;;;;;;;;;;;;;34.76;34.75;98674.41;5043139;28;19912;-76
2022/08/22 11:02:28;;;;;;;;;;;;;;;34.53;35.93;98666.06;5036280;28;19924;-75
2022/08/22 11:05:06;;;;;;;;;;;;;;;34.50;34.98;98669.53;5030425;28;19909;-76
2022/08/22 11:07:40;;;;;;;;;;;;;;;34.48;35.61;98668.28;5029227;28;19932;-75
2022/08/22 11:10:16;;;;;;;;;;;;;;;34.69;34.75;98663.28;5028355;28;19913;-76
2022/08/22 11:12:43;;;;;;;;;;;;;;;34.92;35.02;98666.13;5028089;28;19974;-76
2022/08/22 11:15:15;;;;;;;;;;;;;;;35.18;34.68;98657.25;5029975;28;19916;-76
2022/08/22 11:17:59;;;;;;;;;;;;;;;35.23;31.98;98652.28;5029853;28;19921;-77
2022/08/22 11:20:30;;;;;;;;;;;;;;;35.29;33.27;98652.78;5030511;28;19913;-76
2022/08/22 11:22:59;;;;;;;;;;;;;;;35.28;34.13;98654.72;5030363;28;19920;-76
2022/08/22 11:25:24;;;;;;;;;;;;;;;35.31;32.67;98648.50;5033675;28;19908;-76
2022/08/22 11:27:49;;;;;;;;;;;;;;;35.35;32.91;98649.41;5035168;28;19913;-76
2022/08/22 11:30:14;;;;;;;;;;;;;;;35.48;32.35;98639.03;5034622;28;20382;-76
2022/08/22 11:33:02;;;;;;;;;;;;;;;35.58;33.19;98643.13;5036422;28;19909;-76
2022/08/22 11:35:42;;;;;;;;;;;;;;;35.70;30.65;98637.47;5035763;28;19913;-76
2022/08/22 11:38:25;;;;;;;;;;;;;;;35.83;31.07;98638.09;5027462;28;19920;-76
2022/08/22 11:40:50;;;;;;;;;;;;;;;35.79;32.20;98638.03;5038031;28;19920;-76
2022/08/22 11:43:31;;;;;;;;;;;;;;;35.67;31.76;98644.50;5035380;28;19908;-76
2022/08/22 11:45:59;;;;;;;;;;;;;;;35.19;34.16;98634.16;5032000;28;19963;-76
2022/08/22 11:48:33;;;;;;;;;;;;;;;34.80;34.17;98630.59;5051415;28;19928;-76
2022/08/22 11:50:59;;;;;;;;;;;;;;;34.83;33.17;98627.94;5047734;28;19926;-76
2022/08/22 11:53:24;;;;;;;;;;;;;;;34.98;32.15;98627.09;5034250;28;19922;-76
2022/08/22 11:56:02;;;;;;;;;;;;;;;35.26;31.86;98615.88;5034403;28;20399;-76
2022/08/22 11:58:27;;;;;;;;;;;;;;;35.44;31.88;98629.94;5034567;28;19913;-75
2022/08/22 12:00:55;;;;;;;;;;;;;;;35.31;31.45;98615.56;5035621;28;19920;-76
2022/08/22 12:03:20;;;;;;;;;;;;;;;35.11;32.96;98622.25;5033448;28;20394;-75
2022/08/22 12:05:45;;;;;;;;;;;;;;;34.90;32.69;98613.59;5038279;28;19920;-75
2022/08/22 12:08:20;;;;;;;;;;;;;;;34.68;33.77;98618.59;5035559;28;20015;-76
2022/08/22 12:10:56;;;;;;;;;;;;;;;34.46;32.78;98602.06;5031715;28;20295;-75
2022/08/22 12:13:34;;;;;;;;;;;;;;;34.42;33.35;98608.28;5033345;28;19924;-76
2022/08/22 12:16:14;;;;;;;;;;;;;;;34.60;33.00;98602.38;5064052;28;20373;-76
2022/08/22 12:18:39;;;;;;;;;;;;;;;34.71;31.95;98601.44;5038472;28;20381;-76
2022/08/22 12:21:17;;;;;;;;;;;;;;;34.87;32.28;98592.38;5037954;28;19916;-76
2022/08/22 12:24:11;;;;;;;;;;;;;;;35.11;32.43;98594.03;5065463;28;19917;-76
2022/08/22 12:26:45;;;;;;;;;;;;;;;35.35;31.11;98593.72;5025595;28;20393;-76
2022/08/22 12:29:32;;;;;;;;;;;;;;;35.59;31.67;98598.81;5063370;28;19921;-76
2022/08/22 12:32:21;;;;;;;;;;;;;;;35.72;30.86;98591.22;5042206;28;19980;-76
2022/08/22 12:35:04;;;;;;;;;;;;;;;35.87;31.18;98593.06;5011069;28;19910;-76
2022/08/22 12:37:38;;;;;;;;;;;;;;;35.93;31.53;98588.81;5064435;28;19920;-76
2022/08/22 12:40:07;;;;;;;;;;;;;;;35.97;30.59;98584.19;5014110;28;19920;-76
2022/08/22 12:43:02;;;;;;;;;;;;;;;35.97;29.69;98595.16;5060778;28;20012;-75
2022/08/22 12:45:39;;;;;;;;;;;;;;;35.95;30.70;98589.25;5024926;28;19912;-76
2022/08/22 12:48:16;;;;;;;;;;;;;;;36.09;31.43;98596.13;5034832;28;19917;-75
2022/08/22 12:50:46;;;;;;;;;;;;;;;36.24;29.42;98597.91;5035322;28;20022;-76
2022/08/22 12:53:30;;;;;;;;;;;;;;;36.29;28.59;98581.13;5065688;28;20401;-76
2022/08/22 12:55:58;;;;;;;;;;;;;;;36.10;29.98;98592.22;5033220;28;19980;-75
2022/08/22 12:58:42;;;;;;;;;;;;;;;35.82;31.60;98582.38;5031980;28;20368;-75
2022/08/22 13:01:09;;;;;;;;;;;;;;;35.49;31.36;98588.47;5023373;28;19913;-76
2022/08/22 13:03:39;;;;;;;;;;;;;;;35.34;31.83;98583.88;5041791;28;19916;-76
2022/08/22 13:06:05;;;;;;;;;;;;;;;35.14;30.83;98580.38;5039216;28;19908;-76
2022/08/22 13:08:37;;;;;;;;;;;;;;;34.94;31.20;98587.03;5047437;28;20071;-76
2022/08/22 13:11:05;;;;;;;;;;;;;;;34.66;32.63;98577.03;5023820;28;19992;-75
2022/08/22 13:13:37;;;;;;;;;;;;;;;34.54;32.28;98579.94;5025037;28;20413;-74
2022/08/22 13:16:14;;;;;;;;;;;;;;;34.61;30.16;98577.34;5031664;28;19916;-75
2022/08/22 13:18:52;;;;;;;;;;;;;;;34.78;31.40;98578.03;5041529;28;20309;-75
2022/08/22 13:21:20;;;;;;;;;;;;;;;34.79;31.93;98569.47;5033682;28;19916;-77
2022/08/22 13:23:52;;;;;;;;;;;;;;;34.70;31.51;98566.16;5033553;28;20394;-77